Time;durP1;ratioP1;P1;durP2;ratioP2;P2;SDS_P1;SDS_P2;PMS_P1;PMS_P2;Temp;Humidity;BMP_temperature;BMP_pressure;BME280_temperature;BME280_humidity;BME280_pressure;Samples;Min_cycle;Max_cycle;Signal;HPM_P1;HPM_P2
2022/07/25 00:00:19;;;;;;;6.60;5.97;;;20.80;99.90;;;;;;4937916;28;94472;-31
2022/07/25 00:02:45;;;;;;;6.65;6.07;;;20.80;99.90;;;;;;4936662;28;93579;-31
2022/07/25 00:05:11;;;;;;;5.65;5.15;;;20.80;99.90;;;;;;4937531;28;94630;-35
2022/07/25 00:07:36;;;;;;;6.63;5.90;;;20.80;99.90;;;;;;4936717;28;95265;-34
2022/07/25 00:10:02;;;;;;;5.90;5.40;;;20.80;99.90;;;;;;4937187;28;94553;-33
2022/07/25 00:12:28;;;;;;;7.47;6.75;;;20.70;99.90;;;;;;4972768;22;94925;-32
2022/07/25 00:14:54;;;;;;;7.10;6.40;;;20.70;99.90;;;;;;4937356;28;94758;-31
2022/07/25 00:17:19;;;;;;;8.43;7.32;;;20.70;99.90;;;;;;4937001;28;95241;-34
2022/07/25 00:19:45;;;;;;;7.43;6.22;;;20.70;99.90;;;;;;4937490;28;92320;-32
2022/07/25 00:22:11;;;;;;;7.50;6.80;;;20.60;99.90;;;;;;4937075;28;93484;-34
2022/07/25 00:24:36;;;;;;;8.60;7.60;;;20.60;99.90;;;;;;4937183;28;94494;-32
2022/07/25 00:27:02;;;;;;;6.97;6.35;;;20.60;99.90;;;;;;4936196;28;94226;-35
2022/07/25 00:29:28;;;;;;;7.32;6.72;;;20.60;99.90;;;;;;4924381;28;92344;-34
2022/07/25 00:31:53;;;;;;;10.45;9.35;;;20.50;99.90;;;;;;4936962;28;94516;-31
2022/07/25 00:34:19;;;;;;;10.48;9.38;;;20.50;99.90;;;;;;4937176;28;95141;-34
2022/07/25 00:36:45;;;;;;;11.10;8.65;;;20.40;99.90;;;;;;4936906;28;94718;-35
2022/07/25 00:39:10;;;;;;;8.88;7.82;;;20.40;99.90;;;;;;4940732;28;93497;-33
2022/07/25 00:41:36;;;;;;;10.63;8.48;;;20.40;99.90;;;;;;4940585;28;92830;-33
2022/07/25 00:44:02;;;;;;;12.02;8.25;;;20.40;99.90;;;;;;4940196;28;94624;-32
2022/07/25 00:46:27;;;;;;;9.15;8.35;;;20.40;99.90;;;;;;4940196;28;94908;-35
2022/07/25 00:48:53;;;;;;;8.77;7.88;;;20.30;99.90;;;;;;4940770;28;94271;-33
2022/07/25 00:51:19;;;;;;;10.68;9.57;;;20.30;99.90;;;;;;4922206;28;93379;-32
2022/07/25 00:53:44;;;;;;;8.95;8.13;;;20.30;99.90;;;;;;4940022;28;97127;-33
2022/07/25 00:56:10;;;;;;;10.13;8.88;;;20.30;99.90;;;;;;4939689;28;95127;-31
2022/07/25 00:58:35;;;;;;;11.00;9.85;;;20.30;99.90;;;;;;4940915;28;93196;-32
2022/07/25 01:01:02;;;;;;;10.32;9.27;;;20.40;99.90;;;;;;4939746;28;92948;-30
2022/07/25 01:03:28;;;;;;;11.30;10.23;;;20.50;99.90;;;;;;4940367;28;95139;-33
2022/07/25 01:05:54;;;;;;;9.82;8.82;;;20.50;99.90;;;;;;4939286;28;96172;-33
2022/07/25 01:08:21;;;;;;;11.55;9.90;;;20.50;99.90;;;;;;4939963;28;92063;-34
2022/07/25 01:10:47;;;;;;;10.02;9.02;;;20.50;99.90;;;;;;4940539;28;93368;-33
2022/07/25 01:13:13;;;;;;;10.48;9.40;;;20.50;99.90;;;;;;4938907;28;96981;-32
2022/07/25 01:15:39;;;;;;;10.10;9.20;;;20.50;99.90;;;;;;4939637;28;94537;-31
2022/07/25 01:18:05;;;;;;;10.32;9.43;;;20.50;99.90;;;;;;4940416;28;94542;-31
2022/07/25 01:20:31;;;;;;;10.77;9.57;;;20.40;99.90;;;;;;4939992;28;93460;-30
2022/07/25 01:22:58;;;;;;;11.23;10.23;;;20.40;99.90;;;;;;4939986;28;94841;-32
2022/07/25 01:25:25;;;;;;;8.70;7.90;;;20.30;99.90;;;;;;4939536;28;94424;-31
2022/07/25 01:27:52;;;;;;;9.32;8.45;;;20.30;99.90;;;;;;4935476;28;93954;-32
2022/07/25 01:30:18;;;;;;;9.38;8.52;;;20.20;99.90;;;;;;4930121;28;93113;-32
2022/07/25 01:32:44;;;;;;;12.13;9.27;;;20.20;99.90;;;;;;4940105;28;93786;-34
2022/07/25 01:35:11;;;;;;;11.15;9.77;;;20.20;99.90;;;;;;4939172;28;93722;-31
2022/07/25 01:37:37;;;;;;;11.32;10.18;;;20.20;99.90;;;;;;4940566;28;94895;-35
2022/07/25 01:40:04;;;;;;;11.35;10.35;;;20.20;99.90;;;;;;4929171;28;93740;-35
2022/07/25 01:42:29;;;;;;;10.15;9.23;;;20.20;99.90;;;;;;4922370;28;95408;-32
2022/07/25 01:44:55;;;;;;;13.73;10.55;;;20.30;99.90;;;;;;4926387;28;94584;-32
2022/07/25 01:47:21;;;;;;;10.82;9.90;;;20.20;99.90;;;;;;4933776;28;94833;-35
2022/07/25 01:49:46;;;;;;;12.93;10.18;;;20.30;99.90;;;;;;4929473;28;93081;-32
2022/07/25 01:52:12;;;;;;;10.32;9.05;;;20.20;99.90;;;;;;4938965;28;94997;-31
2022/07/25 01:54:38;;;;;;;14.15;11.18;;;20.20;99.90;;;;;;4938779;28;94513;-31
2022/07/25 01:57:05;;;;;;;12.82;11.55;;;20.20;99.90;;;;;;4925462;28;94043;-34
2022/07/25 01:59:30;;;;;;;11.95;10.82;;;20.10;99.90;;;;;;4938557;28;92190;-31
2022/07/25 02:01:56;;;;;;;13.23;11.85;;;20.10;99.90;;;;;;4938630;28;95216;-33
2022/07/25 02:04:22;;;;;;;13.35;12.23;;;20.10;99.90;;;;;;4937771;28;94684;-30
2022/07/25 02:06:48;;;;;;;12.10;10.88;;;20.10;99.90;;;;;;4938344;28;92685;-31
2022/07/25 02:09:14;;;;;;;11.90;10.52;;;20.10;99.90;;;;;;4939086;28;93437;-33
2022/07/25 02:11:40;;;;;;;13.90;12.50;;;20.10;99.90;;;;;;4938472;28;95960;-33
2022/07/25 02:14:05;;;;;;;12.48;11.18;;;20.10;99.90;;;;;;4924336;28;94239;-32
2022/07/25 02:16:31;;;;;;;12.23;11.02;;;20.10;99.90;;;;;;4938759;28;93384;-32
2022/07/25 02:18:57;;;;;;;11.95;10.85;;;20.10;99.90;;;;;;4938738;28;93324;-30
2022/07/25 02:21:22;;;;;;;11.90;10.80;;;20.00;99.90;;;;;;4938442;28;94036;-32
2022/07/25 02:23:48;;;;;;;12.52;10.95;;;20.00;99.90;;;;;;4938756;28;93831;-32
2022/07/25 02:26:14;;;;;;;14.43;12.98;;;20.00;99.90;;;;;;4938128;28;93128;-32
2022/07/25 02:28:40;;;;;;;15.43;13.68;;;19.90;99.90;;;;;;4937779;28;95549;-32
2022/07/25 02:31:06;;;;;;;14.57;13.15;;;19.90;99.90;;;;;;4937580;28;93747;-33
2022/07/25 02:33:31;;;;;;;15.95;12.32;;;19.90;99.90;;;;;;4938471;28;94569;-34
2022/07/25 02:35:57;;;;;;;13.95;12.52;;;19.80;99.90;;;;;;4938361;28;93484;-33
2022/07/25 02:38:23;;;;;;;14.63;13.10;;;19.80;99.90;;;;;;4938069;28;94016;-32
2022/07/25 02:40:50;;;;;;;13.80;12.52;;;19.70;99.90;;;;;;4937689;28;94929;-32
2022/07/25 02:43:16;;;;;;;13.15;11.98;;;19.70;99.90;;;;;;4937672;28;94488;-32
2022/07/25 02:45:42;;;;;;;14.00;11.88;;;19.70;99.90;;;;;;4938985;28;91640;-32
2022/07/25 02:48:08;;;;;;;15.75;13.77;;;19.70;99.90;;;;;;4924433;28;93319;-31
2022/07/25 02:50:34;;;;;;;13.10;11.82;;;19.70;99.90;;;;;;4937729;28;94818;-35
2022/07/25 02:53:00;;;;;;;15.38;13.90;;;19.60;99.90;;;;;;4937810;28;95843;-32
2022/07/25 02:55:25;;;;;;;14.75;13.32;;;19.60;99.90;;;;;;4937238;28;94590;-31
2022/07/25 02:57:51;;;;;;;13.57;12.20;;;19.60;99.90;;;;;;4938602;28;93078;-33
2022/07/25 03:00:17;;;;;;;16.50;14.82;;;19.60;99.90;;;;;;4936580;28;93117;-34
2022/07/25 03:02:43;;;;;;;14.60;13.20;;;19.60;99.90;;;;;;4937726;28;94550;-31
2022/07/25 03:05:11;;;;;;;13.50;12.15;;;19.60;99.90;;;;;;4937734;28;92185;-31
2022/07/25 03:07:37;;;;;;;;;;;19.60;99.90;;;;;;4938616;28;94289;-33
2022/07/25 03:10:05;;;;;;;16.63;14.85;;;19.70;99.90;;;;;;4939863;28;93736;-34
2022/07/25 03:12:31;;;;;;;14.70;13.27;;;19.70;99.90;;;;;;4937437;28;94208;-30
2022/07/25 03:14:58;;;;;;;13.63;12.32;;;19.80;99.90;;;;;;4937816;28;93594;-33
2022/07/25 03:17:24;;;;;;;15.02;13.25;;;19.80;99.90;;;;;;4936673;28;94370;-32
2022/07/25 03:19:49;;;;;;;13.05;11.75;;;19.80;99.90;;;;;;4937555;28;95110;-34
2022/07/25 03:22:15;;;;;;;14.32;12.90;;;19.80;99.90;;;;;;4937051;28;95093;-34
2022/07/25 03:24:41;;;;;;;14.23;12.73;;;19.80;99.90;;;;;;4937450;28;92845;-32
2022/07/25 03:27:07;;;;;;;12.07;11.05;;;19.90;99.90;;;;;;4937092;28;92673;-34
2022/07/25 03:29:33;;;;;;;14.27;12.95;;;19.90;99.90;;;;;;4936906;28;94467;-32
2022/07/25 03:31:59;;;;;;;14.05;12.63;;;19.80;99.90;;;;;;4937878;28;94226;-32
2022/07/25 03:34:24;;;;;;;12.98;11.73;;;19.80;99.90;;;;;;4937550;28;93036;-33
2022/07/25 03:36:50;;;;;;;13.18;11.88;;;19.80;99.90;;;;;;4937383;28;92475;-33
2022/07/25 03:39:16;;;;;;;14.77;12.30;;;19.80;99.90;;;;;;4936953;28;94470;-35
2022/07/25 03:41:41;;;;;;;14.05;12.60;;;19.80;99.90;;;;;;4936075;28;95018;-32
2022/07/25 03:44:07;;;;;;;12.63;11.30;;;19.80;99.90;;;;;;4937361;28;93298;-33
2022/07/25 03:46:33;;;;;;;16.17;11.63;;;19.80;99.90;;;;;;4936155;28;92163;-33
2022/07/25 03:48:58;;;;;;;12.70;11.50;;;19.80;99.90;;;;;;4924660;28;94743;-33
2022/07/25 03:51:24;;;;;;;19.85;11.70;;;19.80;99.90;;;;;;4936576;28;94530;-33
2022/07/25 03:54:02;;;;;;;12.57;11.57;;;19.90;99.90;;;;;;4936964;28;93590;-35
2022/07/25 03:56:42;;;;;;;13.00;11.80;;;19.80;99.90;;;;;;4937359;28;94579;-35
2022/07/25 03:59:10;;;;;;;13.30;11.95;;;19.90;99.90;;;;;;4936591;28;94148;-36
2022/07/25 04:01:36;;;;;;;12.70;11.50;;;19.80;99.90;;;;;;4937399;28;93249;-32
2022/07/25 04:04:02;;;;;;;14.05;12.82;;;19.80;99.90;;;;;;4936599;28;93163;-32
2022/07/25 04:06:30;;;;;;;12.45;11.25;;;19.80;99.90;;;;;;4935579;28;94187;-34
2022/07/25 04:08:57;;;;;;;11.77;10.57;;;19.80;99.90;;;;;;4936375;28;94698;-35
2022/07/25 04:11:23;;;;;;;13.05;11.38;;;19.80;99.90;;;;;;4936443;28;94518;-32
2022/07/25 04:13:49;;;;;;;13.52;12.13;;;19.80;99.90;;;;;;4936091;28;93443;-32
2022/07/25 04:16:16;;;;;;;14.10;11.07;;;19.80;99.90;;;;;;4936189;28;93720;-31
2022/07/25 04:18:42;;;;;;;13.90;12.50;;;19.80;99.90;;;;;;4936993;28;94907;-31
2022/07/25 04:21:08;;;;;;;12.68;11.38;;;19.80;99.90;;;;;;4935660;28;94481;-33
2022/07/25 04:23:35;;;;;;;19.05;12.00;;;19.90;99.90;;;;;;4937558;28;91730;-32
2022/07/25 04:26:00;;;;;;;14.98;12.88;;;19.90;99.90;;;;;;4936249;28;93531;-34
2022/07/25 04:28:26;;;;;;;13.23;10.65;;;19.90;99.90;;;;;;4935326;28;94845;-34
2022/07/25 04:30:52;;;;;;;13.00;11.63;;;20.00;99.90;;;;;;4936154;28;95985;-33
2022/07/25 04:33:19;;;;;;;11.85;10.70;;;20.10;99.90;;;;;;4936144;28;93164;-32
2022/07/25 04:35:44;;;;;;;13.27;12.05;;;20.10;99.90;;;;;;4936787;28;93368;-33
2022/07/25 04:38:10;;;;;;;12.50;11.38;;;20.20;99.90;;;;;;4935847;28;94635;-33
2022/07/25 04:40:36;;;;;;;12.55;11.23;;;20.30;99.90;;;;;;4935640;28;95036;-35
2022/07/25 04:43:03;;;;;;;16.10;11.80;;;20.30;99.90;;;;;;4936416;28;94013;-34
2022/07/25 04:45:29;;;;;;;13.30;11.23;;;20.40;99.90;;;;;;4936371;28;92174;-33
2022/07/25 04:47:54;;;;;;;14.50;11.75;;;20.50;99.90;;;;;;4925161;28;93934;-32
2022/07/25 04:50:20;;;;;;;13.85;11.57;;;20.70;99.90;;;;;;4934265;28;93891;-34
2022/07/25 04:52:46;;;;;;;12.18;11.18;;;20.90;99.90;;;;;;4936313;28;94527;-33
2022/07/25 04:55:11;;;;;;;14.48;12.77;;;21.00;99.90;;;;;;4935217;28;95224;-32
2022/07/25 04:57:37;;;;;;;12.13;10.80;;;21.20;99.90;;;;;;4935477;28;95315;-32
2022/07/25 05:00:05;;;;;;;12.85;11.27;;;21.40;99.90;;;;;;4936235;28;94720;-33
2022/07/25 05:02:31;;;;;;;12.75;11.35;;;21.60;99.90;;;;;;4936689;28;92174;-33
2022/07/25 05:04:57;;;;;;;13.95;12.30;;;21.80;99.90;;;;;;4936853;28;94637;-31
2022/07/25 05:07:22;;;;;;;13.52;10.90;;;21.90;99.90;;;;;;4944921;28;95017;-33
2022/07/25 05:09:48;;;;;;;13.02;11.82;;;21.90;99.90;;;;;;4945935;28;93215;-34
2022/07/25 05:12:14;;;;;;;13.10;11.80;;;22.00;99.90;;;;;;4943743;28;91435;-30
2022/07/25 05:14:39;;;;;;;11.85;10.80;;;22.10;99.90;;;;;;4950089;28;92551;-33
2022/07/25 05:17:05;;;;;;;13.63;12.23;;;22.10;99.90;;;;;;4946674;28;94629;-35
2022/07/25 05:19:30;;;;;;;13.52;11.15;;;22.20;99.90;;;;;;4943237;28;94616;-33
2022/07/25 05:21:56;;;;;;;11.75;10.73;;;22.20;99.90;;;;;;4949615;28;92905;-34
2022/07/25 05:24:22;;;;;;;13.70;10.45;;;22.30;99.90;;;;;;4951849;28;93089;-31
2022/07/25 05:26:48;;;;;;;16.25;11.77;;;22.40;99.90;;;;;;4952921;28;94478;-33
2022/07/25 05:29:14;;;;;;;16.10;12.52;;;22.60;99.90;;;;;;4952879;28;94615;-31
2022/07/25 05:31:40;;;;;;;12.82;11.45;;;22.80;99.90;;;;;;4952922;28;92232;-32
2022/07/25 05:34:05;;;;;;;14.80;10.90;;;22.90;99.90;;;;;;4933644;28;93203;-32
2022/07/25 05:36:32;;;;;;;13.85;11.88;;;23.00;99.90;;;;;;4948843;28;94904;-33
2022/07/25 05:38:58;;;;;;;12.55;11.18;;;23.20;99.90;;;;;;4944375;28;93267;-32
2022/07/25 05:41:23;;;;;;;12.73;10.63;;;23.20;99.90;;;;;;4950502;28;94205;-31
2022/07/25 05:43:49;;;;;;;13.27;10.75;;;23.30;99.90;;;;;;4951988;28;94008;-34
2022/07/25 05:46:15;;;;;;;13.75;9.93;;;23.40;99.90;;;;;;4951622;28;94833;-33
2022/07/25 05:48:41;;;;;;;9.30;8.27;;;23.50;99.90;;;;;;4938001;28;94330;-33
2022/07/25 05:51:07;;;;;;;10.85;9.85;;;23.60;99.90;;;;;;4953496;28;93626;-32
2022/07/25 05:53:33;;;;;;;10.75;9.25;;;23.70;99.90;;;;;;4953743;28;92688;-33
2022/07/25 05:55:58;;;;;;;14.55;9.43;;;23.80;99.90;;;;;;4953265;28;94721;-32
2022/07/25 05:58:24;;;;;;;11.27;10.15;;;23.80;99.90;;;;;;4953217;28;93586;-33
2022/07/25 06:00:50;;;;;;;9.98;9.00;;;23.90;99.90;;;;;;4953572;28;91701;-31
2022/07/25 06:03:19;;;;;;;11.13;9.50;;;23.90;99.90;;;;;;4953086;28;93285;-34
2022/07/25 06:05:45;;;;;;;9.82;8.93;;;23.90;99.90;;;;;;4951765;28;95463;-34
2022/07/25 06:08:12;;;;;;;10.98;9.80;;;23.90;99.90;;;;;;4950652;28;94563;-32
2022/07/25 06:10:38;;;;;;;11.05;9.88;;;24.00;99.90;;;;;;4950356;28;92865;-33
2022/07/25 06:13:03;;;;;;;11.88;9.93;;;23.90;99.90;;;;;;4952569;28;93676;-36
2022/07/25 06:15:29;;;;;;;12.32;10.10;;;24.00;99.90;;;;;;4952672;28;95471;-33
2022/07/25 06:17:55;;;;;;;11.68;10.57;;;24.00;99.90;;;;;;4952637;28;95327;-32
2022/07/25 06:20:21;;;;;;;11.18;10.10;;;24.00;99.90;;;;;;4931851;28;92772;-33
2022/07/25 06:22:46;;;;;;;10.88;9.70;;;24.00;99.90;;;;;;4952274;28;93521;-32
2022/07/25 06:25:12;;;;;;;12.65;10.57;;;23.90;99.90;;;;;;4950854;28;92723;-33
2022/07/25 06:27:38;;;;;;;12.80;11.43;;;23.90;99.90;;;;;;4949901;28;93854;-33
2022/07/25 06:30:05;;;;;;;13.40;11.38;;;23.90;99.90;;;;;;4951014;28;93331;-37
2022/07/25 06:32:31;;;;;;;13.13;10.55;;;24.00;99.90;;;;;;4949057;28;93767;-33
2022/07/25 06:34:56;;;;;;;12.02;10.93;;;24.00;99.90;;;;;;4948361;28;94741;-33
2022/07/25 06:37:22;;;;;;;13.70;12.27;;;24.20;99.90;;;;;;4948362;28;94820;-32
2022/07/25 06:39:48;;;;;;;12.85;11.55;;;24.30;99.90;;;;;;4949785;28;92218;-35
2022/07/25 06:42:13;;;;;;;13.02;11.30;;;24.30;99.90;;;;;;4949265;28;93254;-32
2022/07/25 06:44:39;;;;;;;15.75;12.20;;;24.20;99.90;;;;;;4949401;28;94958;-32
2022/07/25 06:47:09;;;;;;;15.05;10.90;;;24.20;99.90;;;;;;4943751;28;94661;-35
2022/07/25 06:49:34;;;;;;;13.52;11.70;;;24.20;99.90;;;;;;4942142;28;92549;-33
2022/07/25 06:52:00;;;;;;;15.15;11.07;;;24.10;99.90;;;;;;4949942;28;92157;-35
2022/07/25 06:54:26;;;;;;;13.00;10.77;;;24.20;99.90;;;;;;4949225;28;94759;-32
2022/07/25 06:56:51;;;;;;;12.70;10.45;;;24.50;99.90;;;;;;4949043;28;94383;-36
2022/07/25 06:59:17;;;;;;;19.55;11.30;;;24.80;99.90;;;;;;4949421;28;92984;-32
2022/07/25 07:01:42;;;;;;;12.05;10.85;;;25.10;99.90;;;;;;4949488;28;93407;-32
2022/07/25 07:04:08;;;;;;;11.65;10.45;;;25.40;99.90;;;;;;4948333;28;94904;-33
2022/07/25 07:06:35;;;;;;;11.85;10.75;;;25.60;99.90;;;;;;4949591;28;94995;-32
2022/07/25 07:09:00;;;;;;;12.65;11.40;;;25.80;99.90;;;;;;4949636;28;92138;-32
2022/07/25 07:11:26;;;;;;;11.57;10.43;;;26.10;99.90;;;;;;4949447;28;92802;-35
2022/07/25 07:13:52;;;;;;;13.07;11.25;;;26.40;99.90;;;;;;4950003;28;94018;-37
2022/07/25 07:16:17;;;;;;;12.68;10.68;;;26.60;99.90;;;;;;4949000;28;93620;-32
2022/07/25 07:18:43;;;;;;;10.65;9.65;;;26.70;99.90;;;;;;4949680;28;92895;-33
2022/07/25 07:21:09;;;;;;;12.27;10.68;;;26.80;99.90;;;;;;4948314;28;94107;-31
2022/07/25 07:23:35;;;;;;;12.85;11.55;;;27.00;99.90;;;;;;4949610;28;94926;-33
2022/07/25 07:26:00;;;;;;;16.38;9.90;;;27.00;99.90;;;;;;4949032;28;95983;-33
2022/07/25 07:28:26;;;;;;;11.05;9.93;;;27.10;99.90;;;;;;4949952;28;92675;-35
2022/07/25 07:30:52;;;;;;;12.40;11.00;;;27.10;99.90;;;;;;4949943;28;92541;-35
2022/07/25 07:33:17;;;;;;;12.07;10.90;;;27.10;99.90;;;;;;4949591;28;94637;-33
2022/07/25 07:35:44;;;;;;;10.95;9.82;;;27.00;99.90;;;;;;4948806;28;94651;-32
2022/07/25 07:38:10;;;;;;;11.32;10.18;;;27.10;99.90;;;;;;4949910;28;92013;-34
2022/07/25 07:40:36;;;;;;;16.58;10.88;;;27.30;99.90;;;;;;4948516;28;93254;-35
2022/07/25 07:43:02;;;;;;;12.20;10.98;;;27.50;99.90;;;;;;4949027;28;94636;-32
2022/07/25 07:45:29;;;;;;;14.05;10.90;;;27.50;99.90;;;;;;4947823;28;94584;-33
2022/07/25 07:47:55;;;;;;;12.88;11.63;;;27.60;99.90;;;;;;4937215;28;93021;-32
2022/07/25 07:50:26;;;;;;;13.45;12.25;;;27.70;99.90;;;;;;4945486;28;93034;-31
2022/07/25 07:52:53;;;;;;;11.90;10.70;;;27.80;99.90;;;;;;4948061;28;94802;-34
2022/07/25 07:58:03;;;;;;;13.90;11.98;;;27.70;99.90;;;;;;4948971;28;92222;-37
2022/07/25 08:00:32;;;;;;;11.82;10.63;;;27.80;99.90;;;;;;4948889;28;92585;-33
2022/07/25 08:02:58;;;;;;;11.43;10.25;;;27.80;99.90;;;;;;4948045;28;93449;-32
2022/07/25 08:05:31;;;;;;;15.63;10.65;;;27.90;99.90;;;;;;4947576;28;93605;-34
2022/07/25 08:07:57;;;;;;;14.20;10.68;;;28.00;99.90;;;;;;4947972;28;92304;-32
2022/07/25 08:10:25;;;;;;;12.02;9.80;;;28.00;99.90;;;;;;4947001;28;93715;-33
2022/07/25 08:12:51;;;;;;;13.38;11.80;;;28.10;99.90;;;;;;4930655;28;94915;-32
2022/07/25 08:15:18;;;;;;;10.65;9.63;;;28.10;99.90;;;;;;4947769;28;94638;-32
2022/07/25 08:17:45;;;;;;;11.87;10.40;;;28.30;99.90;;;;;;4949183;28;93531;-34
2022/07/25 08:20:12;;;;;;;12.85;11.48;;;28.60;99.90;;;;;;4946715;28;92254;-33
2022/07/25 08:22:40;;;;;;;14.48;10.68;;;28.80;99.90;;;;;;4948219;28;94843;-32
2022/07/25 08:25:06;;;;;;;;;;;28.80;99.90;;;;;;4948718;28;94071;-33
2022/07/25 08:27:32;;;;;;;11.73;10.73;;;28.70;99.90;;;;;;4950049;28;91902;-35
2022/07/25 08:29:59;;;;;;;12.63;11.23;;;28.30;99.90;;;;;;4948204;28;92746;-33
2022/07/25 08:32:28;;;;;;;11.73;10.52;;;28.10;99.90;;;;;;4947691;28;94761;-33
2022/07/25 08:34:55;;;;;;;14.27;10.68;;;28.00;99.90;;;;;;4947834;28;94914;-33
2022/07/25 08:37:20;;;;;;;11.97;10.70;;;27.80;99.90;;;;;;4930986;28;92193;-35
2022/07/25 08:39:47;;;;;;;11.10;10.10;;;27.70;99.90;;;;;;4947423;28;93761;-33
2022/07/25 08:42:13;;;;;;;40.97;15.85;;;27.70;99.90;;;;;;4945690;28;95783;-33
2022/07/25 08:44:42;;;;;;;12.63;11.43;;;27.60;99.90;;;;;;4947171;28;95133;-33
2022/07/25 08:47:09;;;;;;;13.43;11.77;;;27.50;99.90;;;;;;4941590;28;92290;-33
2022/07/25 08:49:35;;;;;;;12.60;10.77;;;27.30;99.90;;;;;;4939235;28;92114;-34
2022/07/25 08:52:02;;;;;;;11.38;10.13;;;27.30;99.90;;;;;;4947173;28;95304;-33
2022/07/25 08:54:29;;;;;;;;;;;26.90;99.90;;;;;;4944548;28;93965;-33
2022/07/25 08:56:55;;;;;;;11.48;10.38;;;26.70;99.90;;;;;;4948291;28;92723;-32
2022/07/25 08:59:20;;;;;;;12.43;10.18;;;26.60;99.90;;;;;;4948825;28;93924;-33
2022/07/25 09:01:46;;;;;;;9.98;8.82;;;26.60;99.90;;;;;;4951093;28;94674;-33
2022/07/25 09:04:12;;;;;;;11.65;10.55;;;26.70;99.90;;;;;;4951023;28;94107;-34
2022/07/25 09:06:50;;;;;;;9.85;8.85;;;26.70;99.90;;;;;;4951111;28;92882;-31
2022/07/25 09:09:16;;;;;;;11.13;8.05;;;26.80;99.90;;;;;;4952205;28;92711;-32
2022/07/25 09:11:42;;;;;;;8.82;7.53;;;26.90;99.90;;;;;;4951252;28;94583;-31
2022/07/25 09:14:11;;;;;;;8.10;7.30;;;26.80;99.90;;;;;;4951208;28;94505;-34
2022/07/25 09:16:40;;;;;;;7.57;6.88;;;26.70;99.90;;;;;;4952337;28;91318;-34
2022/07/25 09:19:15;;;;;;;7.03;6.20;;;26.60;99.90;;;;;;4951168;28;92740;-31
2022/07/25 09:21:43;;;;;;;7.43;6.43;;;26.50;99.90;;;;;;4951522;28;95398;-31
2022/07/25 09:24:17;;;;;;;7.95;7.15;;;26.30;99.90;;;;;;4950736;28;94785;-31
2022/07/25 09:26:51;;;;;;;14.68;7.25;;;26.10;99.90;;;;;;4951772;28;92159;-32
2022/07/25 09:29:27;;;;;;;7.38;6.78;;;26.10;99.90;;;;;;4948079;28;92231;-31
2022/07/25 09:31:55;;;;;;;6.97;6.35;;;26.10;99.90;;;;;;4948855;28;96813;-31
2022/07/25 09:34:30;;;;;;;;;;;26.00;99.90;;;;;;4950633;28;95019;-32
2022/07/25 09:36:57;;;;;;;6.95;6.18;;;25.90;99.90;;;;;;4951705;28;92922;-32
2022/07/25 09:39:45;;;;;;;6.97;6.13;;;25.80;99.90;;;;;;4951254;28;93384;-32
2022/07/25 09:42:21;;;;;;;11.48;8.93;;;25.80;99.90;;;;;;4947850;28;93748;-31
2022/07/25 09:45:16;;;;;;;8.77;7.88;;;25.70;99.90;;;;;;4951912;28;93794;-34
2022/07/25 09:47:56;;;;;;;9.27;7.28;;;25.60;99.90;;;;;;4924727;28;92977;-32
2022/07/25 09:50:23;;;;;;;71.28;13.35;;;25.60;99.90;;;;;;4948741;28;94098;-32
2022/07/25 09:52:51;;;;;;;12.63;6.37;;;25.50;99.90;;;;;;4948754;28;95726;-34
2022/07/25 09:55:18;;;;;;;11.10;7.28;;;25.60;99.90;;;;;;4941480;28;95412;-34
2022/07/25 09:57:43;;;;;;;8.07;7.27;;;25.50;99.90;;;;;;4944768;28;93143;-35
2022/07/25 10:00:11;;;;;;;9.68;6.13;;;25.60;99.90;;;;;;4951543;28;92219;-33
2022/07/25 10:02:49;;;;;;;8.05;6.40;;;25.60;99.90;;;;;;4940793;28;95108;-34
2022/07/25 10:05:55;;;;;;;8.05;6.28;;;25.60;99.90;;;;;;4938441;28;94607;-34
2022/07/25 10:08:22;;;;;;;13.07;6.28;;;25.60;99.90;;;;;;4940147;28;92940;-32
2022/07/25 10:10:48;;;;;;;7.50;6.82;;;25.70;99.90;;;;;;4916031;28;93091;-34
2022/07/25 10:13:16;;;;;;;11.57;6.70;;;25.80;99.90;;;;;;4932010;28;94966;-33
2022/07/25 10:15:49;;;;;;;8.95;6.43;;;25.90;99.90;;;;;;4943297;28;93982;-33
2022/07/25 10:18:17;;;;;;;10.68;5.20;;;26.00;99.90;;;;;;4951384;28;92148;-31
2022/07/25 10:20:44;;;;;;;5.95;4.68;;;25.90;99.90;;;;;;4951374;28;92876;-34
2022/07/25 10:23:20;;;;;;;15.00;5.63;;;25.80;99.90;;;;;;4950496;28;94704;-33
2022/07/25 10:25:47;;;;;;;5.13;4.25;;;25.80;99.90;;;;;;4950466;28;93967;-32
2022/07/25 10:28:19;;;;;;;4.43;3.22;;;25.60;99.90;;;;;;4951049;28;92431;-31
2022/07/25 10:30:44;;;;;;;13.00;5.68;;;25.50;99.90;;;;;;4951202;28;92558;-34
2022/07/25 10:33:11;;;;;;;13.18;4.88;;;25.40;99.90;;;;;;4950758;28;92713;-31
2022/07/25 10:35:37;;;;;;;6.75;2.70;;;25.30;99.90;;;;;;4949644;28;94232;-33
2022/07/25 10:38:04;;;;;;;4.82;3.00;;;25.30;99.90;;;;;;4944714;28;93416;-34
2022/07/25 10:40:38;;;;;;;2.63;2.42;;;25.30;99.90;;;;;;4944009;28;93206;-34
2022/07/25 10:43:10;;;;;;;2.50;2.30;;;25.50;99.90;;;;;;4946939;28;94357;-35
2022/07/25 10:45:49;;;;;;;7.47;2.63;;;25.60;99.90;;;;;;4947960;28;94677;-35
2022/07/25 10:48:25;;;;;;;3.25;2.53;;;25.70;99.90;;;;;;4933204;28;92676;-33
2022/07/25 10:51:06;;;;;;;4.95;2.63;;;25.90;99.90;;;;;;4948500;28;92477;-34
2022/07/25 10:53:45;;;;;;;2.33;2.13;;;26.00;99.90;;;;;;4949463;28;94683;-32
2022/07/25 10:56:18;;;;;;;3.22;3.03;;;26.00;99.90;;;;;;4949781;28;94452;-34
2022/07/25 10:58:59;;;;;;;3.30;3.00;;;26.10;99.90;;;;;;4951009;28;91743;-35
2022/07/25 11:01:26;;;;;;;4.32;2.03;;;26.20;99.90;;;;;;4929238;28;93029;-32
2022/07/25 11:03:54;;;;;;;2.67;2.47;;;26.30;99.90;;;;;;4949195;28;93822;-32
2022/07/25 11:06:28;;;;;;;3.03;2.60;;;26.30;99.90;;;;;;4949814;28;94564;-32
2022/07/25 11:08:56;;;;;;;4.60;3.45;;;26.20;99.90;;;;;;4950438;28;92514;-32
2022/07/25 11:11:36;;;;;;;3.92;2.15;;;26.10;99.90;;;;;;4949544;28;93170;-33
2022/07/25 11:14:02;;;;;;;3.63;2.58;;;26.00;99.90;;;;;;4949529;28;94930;-32
2022/07/25 11:16:28;;;;;;;3.70;2.83;;;26.00;99.90;;;;;;4949860;28;94440;-35
2022/07/25 11:18:54;;;;;;;4.20;2.60;;;26.00;99.90;;;;;;4949944;28;92123;-34
2022/07/25 11:21:20;;;;;;;2.58;1.50;;;26.00;99.90;;;;;;4948838;28;92769;-34
2022/07/25 11:23:51;;;;;;;5.07;2.00;;;26.10;99.90;;;;;;4950102;28;94603;-32
2022/07/25 11:26:17;;;;;;;2.72;1.60;;;26.00;99.90;;;;;;4949284;28;93859;-34
2022/07/25 11:28:46;;;;;;;2.78;1.42;;;25.80;99.90;;;;;;4949908;28;92289;-32
2022/07/25 11:31:13;;;;;;;14.43;2.40;;;25.60;99.90;;;;;;4948937;28;93346;-31
2022/07/25 11:33:40;;;;;;;3.38;2.42;;;25.30;99.90;;;;;;4949079;28;94878;-32
2022/07/25 11:36:07;;;;;;;4.20;1.88;;;25.10;99.90;;;;;;4949318;28;94493;-34
2022/07/25 11:38:33;;;;;;;2.58;1.30;;;24.90;99.90;;;;;;4949114;28;92676;-34
2022/07/25 11:40:59;;;;;;;7.10;2.05;;;24.90;99.90;;;;;;4949330;28;93329;-34
2022/07/25 11:43:25;;;;;;;2.65;1.58;;;24.90;99.90;;;;;;4931229;28;95268;-33
2022/07/25 11:46:06;;;;;;;2.78;1.45;;;24.80;99.90;;;;;;4932024;28;95024;-35
2022/07/25 11:48:38;;;;;;;1.23;1.13;;;24.90;99.90;;;;;;4933051;28;91697;-32
2022/07/25 11:51:12;;;;;;;3.45;1.30;;;24.90;99.90;;;;;;4947632;28;93478;-36
2022/07/25 11:53:40;;;;;;;3.90;2.03;;;25.20;99.90;;;;;;4947692;28;94620;-34
2022/07/25 11:56:19;;;;;;;6.28;2.42;;;25.30;99.90;;;;;;4946781;28;95032;-31
2022/07/25 11:58:59;;;;;;;3.95;1.85;;;25.30;99.90;;;;;;4947211;28;92605;-33
2022/07/25 12:01:33;;;;;;;6.50;2.80;;;25.20;99.90;;;;;;4942147;28;93123;-33
2022/07/25 12:04:10;;;;;;;3.83;1.90;;;25.10;99.90;;;;;;4949381;28;94602;-32
2022/07/25 12:06:36;;;;;;;4.30;2.08;;;25.10;99.90;;;;;;4948519;28;94395;-32
2022/07/25 12:09:16;;;;;;;4.00;2.95;;;24.90;99.90;;;;;;4949535;28;92629;-32
2022/07/25 12:14:43;;;;;;;3.45;2.95;;;25.00;99.90;;;;;;4889453;28;92118;-31
2022/07/25 12:17:08;;;;;;;5.63;2.42;;;24.90;99.90;;;;;;4890593;28;93818;-34
2022/07/25 12:19:34;;;;;;;4.95;2.85;;;24.90;99.90;;;;;;4891429;28;92125;-31
2022/07/25 12:22:00;;;;;;;8.98;2.40;;;24.90;99.90;;;;;;4891239;28;93641;-33
2022/07/25 12:24:25;;;;;;;9.50;3.38;;;24.90;99.90;;;;;;4890782;28;94608;-32
2022/07/25 12:26:51;;;;;;;8.98;4.25;;;25.00;99.90;;;;;;4891369;28;94679;-33
2022/07/25 12:29:16;;;;;;;2.72;2.42;;;24.90;99.90;;;;;;4890815;28;92518;-34
2022/07/25 12:31:42;;;;;;;5.10;2.67;;;24.90;99.90;;;;;;4889933;28;92184;-33
2022/07/25 12:34:07;;;;;;;4.70;2.85;;;25.00;99.90;;;;;;4889590;28;94338;-34
2022/07/25 12:36:39;;;;;;;8.30;2.60;;;25.20;99.90;;;;;;4890415;28;93714;-33
2022/07/25 12:39:05;;;;;;;5.80;3.13;;;25.30;99.90;;;;;;4891030;28;91464;-33
2022/07/25 12:41:31;;;;;;;6.18;3.63;;;25.40;99.90;;;;;;4889562;28;93863;-33